Mastronikos — SVA6956 — position and weather

sailwx.info

Track history (hours):
 
Tides and Currents Weather Stations Pressure Air Temp Water Temp Dewpoint Dewpoint Depression Visibility Wind Speed Wind Dir Waves Ship Positions

Mastronikos

Last reported at 2017-Dec-27 18:38 UTC. Time now 2018-Jan-18 17:24 UTC.
Position N 38°22' E 023°45'.
Warning: this ship's position is 21 days out of date.

Length 81 m.

Type: Cargo ship. MMSI: 239943900.

Date/timePositionNaut miles runAvg speedWind from/ knotsBaromVisibWave heightAir tempDewpointWater temp
2017-Dec-27 18:38N 38°22' E 023°45'1 8.2
2017-Dec-27 18:28N 38°22' E 023°46'4 8.2
2017-Dec-27 18:01N 38°22' E 023°51'12 0.8
2017-Dec-27 04:00N 38°15' E 024°03'5 7.7
2017-Dec-27 03:21N 38°10' E 024°05'3 7.8
2017-Dec-27 03:01N 38°07' E 024°06'4 7.9
2017-Dec-27 02:30N 38°03' E 024°06'4 7.9
2017-Dec-27 02:01N 37°60' E 024°06'4 8.0
2017-Dec-27 01:30N 37°56' E 024°06'13 8.1
2017-Dec-26 23:51N 37°42' E 024°05'3 8.2
2017-Dec-26 23:30N 37°39' E 024°04'4 7.5
2017-Dec-26 23:01N 37°38' E 024°00'4 8.1
2017-Dec-26 22:31N 37°38' E 023°55'4 8.0
2017-Dec-26 22:01N 37°39' E 023°50'4 8.2
2017-Dec-26 21:30N 37°39' E 023°45'4 7.2
2017-Dec-26 21:01N 37°42' E 023°41'4 7.8
2017-Dec-26 20:31N 37°45' E 023°39'4 8.0
2017-Dec-26 20:01N 37°49' E 023°37'4 7.5
2017-Dec-26 19:31N 37°50' E 023°32'4 8.1
2017-Dec-26 19:01N 37°50' E 023°27'4 8.2
2017-Dec-26 18:31N 37°51' E 023°22'4 8.3
2017-Dec-26 18:01N 37°52' E 023°17'4 8.2
2017-Dec-26 17:31N 37°52' E 023°12'4 8.5
2017-Dec-26 17:01N 37°53' E 023°07'4 8.8
2017-Dec-26 16:31N 37°54' E 023°01'3 5.9
2017-Dec-26 15:56N 37°57' E 022°58'3 6.0
2017-Dec-26 15:31N 37°58' E 022°56'4 8.8
2017-Dec-26 15:01N 38°00' E 022°51'5 9.2
2017-Dec-26 14:31N 38°03' E 022°46'5 9.2
2017-Dec-26 14:01N 38°05' E 022°41'5 9.2
2017-Dec-26 13:30N 38°07' E 022°35'  
2017-Dec-22 18:35N 38°15' E 022°28'3 8.0
2017-Dec-22 18:12N 38°14' E 022°31'2 7.9
2017-Dec-22 17:59N 38°14' E 022°34'4 7.4
2017-Dec-22 17:30N 38°13' E 022°38'2 3.0
2017-Dec-22 16:59N 38°13' E 022°40'4 7.5
2017-Dec-22 16:31N 38°12' E 022°44'4 7.5
2017-Dec-22 16:01N 38°11' E 022°49'4 7.3
2017-Dec-22 15:28N 38°10' E 022°54'4 7.8
2017-Dec-22 15:00N 38°11' E 022°58'1 0.1
2017-Dec-22 05:47N 38°12' E 022°58'2 4.7
2017-Dec-22 05:27N 38°11' E 022°57'4 8.1
2017-Dec-22 04:55N 38°10' E 022°52'3 7.9
2017-Dec-22 04:30N 38°11' E 022°48'4 8.6
2017-Dec-22 04:00N 38°12' E 022°42'3 5.9
2017-Dec-22 03:31N 38°13' E 022°39'2 3.7
2017-Dec-22 02:59N 38°13' E 022°36'1 1.7
2017-Dec-22 02:30N 38°14' E 022°36'7 0.2
2017-Dec-20 18:15N 38°15' E 022°27'3 8.5
2017-Dec-20 17:51N 38°14' E 022°31'3 8.3
2017-Dec-20 17:28N 38°14' E 022°35'4 8.1
2017-Dec-20 17:00N 38°13' E 022°40'4 8.4
2017-Dec-20 16:30N 38°12' E 022°45'5 8.8
2017-Dec-20 15:55N 38°10' E 022°51'3 8.3
2017-Dec-20 15:30N 38°10' E 022°56'2 0.2
2017-Dec-20 05:42N 38°12' E 022°57'2 7.4
2017-Dec-20 05:30N 38°11' E 022°58'4 7.5
2017-Dec-20 05:00N 38°08' E 022°56'4 7.7
2017-Dec-20 04:30N 38°05' E 022°53'4 7.8
2017-Dec-20 04:00N 38°02' E 022°50'4 8.5
2017-Dec-20 03:30N 37°59' E 022°54'3 6.0
2017-Dec-20 03:01N 37°57' E 022°57'0 0.0
2017-Dec-20 02:31N 37°57' E 022°57'0 0.0
2017-Dec-20 02:01N 37°57' E 022°57'0 0.1
2017-Dec-20 01:31N 37°57' E 022°57'0 0.1
2017-Dec-20 01:01N 37°57' E 022°57'0 0.0
2017-Dec-20 00:31N 37°57' E 022°57'0 0.0
2017-Dec-20 00:00N 37°57' E 022°57'0 0.0
2017-Dec-19 23:31N 37°57' E 022°57'0 0.1
2017-Dec-19 23:01N 37°57' E 022°57'0 0.0
2017-Dec-19 22:31N 37°57' E 022°57'0 0.0
2017-Dec-19 22:00N 37°57' E 022°57'0 0.0
2017-Dec-19 21:31N 37°57' E 022°57'0 0.0
2017-Dec-19 21:00N 37°57' E 022°57'0 0.1
2017-Dec-19 20:31N 37°57' E 022°57'1 1.5
2017-Dec-19 20:01N 37°57' E 022°56'0 0.0
2017-Dec-19 19:31N 37°57' E 022°56'0 0.0
2017-Dec-19 19:00N 37°57' E 022°56'0 0.0
2017-Dec-19 18:31N 37°57' E 022°56'0 0.0
2017-Dec-19 18:01N 37°57' E 022°56'0 0.0
2017-Dec-19 17:31N 37°57' E 022°56'0 0.0
2017-Dec-19 17:00N 37°57' E 022°56'0 0.0
2017-Dec-19 16:31N 37°57' E 022°56'0 0.0
2017-Dec-19 16:01N 37°57' E 022°56'0 0.0
2017-Dec-19 15:30N 37°57' E 022°56'0 0.0
2017-Dec-19 15:01N 37°57' E 022°56'0 0.0
2017-Dec-19 14:31N 37°57' E 022°56'0 0.0
2017-Dec-19 14:00N 37°57' E 022°56'0 0.0
2017-Dec-19 13:31N 37°57' E 022°56'0 0.0
2017-Dec-19 13:01N 37°57' E 022°56'0 0.0
2017-Dec-19 12:31N 37°57' E 022°56'0 0.0
2017-Dec-19 12:01N 37°57' E 022°56'0 0.0
2017-Dec-19 11:30N 37°57' E 022°56'0 0.0
2017-Dec-19 11:01N 37°57' E 022°56'0 0.0
2017-Dec-19 10:31N 37°57' E 022°56'0 0.0
2017-Dec-19 10:01N 37°57' E 022°56'0 0.0
2017-Dec-19 09:31N 37°57' E 022°56'0 0.0
2017-Dec-19 09:01N 37°57' E 022°56'0 0.0
2017-Dec-19 08:31N 37°57' E 022°56'0 0.0
2017-Dec-19 08:01N 37°57' E 022°56'0 0.0
2017-Dec-19 07:30N 37°57' E 022°56'0 0.0
2017-Dec-19 07:01N 37°57' E 022°56'0 0.3
2017-Dec-19 06:31N 37°57' E 022°56'2 3.3
2017-Dec-19 06:01N 37°57' E 022°58'1 2.2
2017-Dec-19 05:30N 37°56' E 022°59'1 1.6
2017-Dec-19 05:00N 37°55' E 022°60'1 1.7
2017-Dec-19 04:30N 37°55' E 023°01'0 0.4
2017-Dec-19 04:01N 37°55' E 023°01'0 0.0
2017-Dec-19 03:31N 37°55' E 023°01'0 0.0
2017-Dec-19 03:01N 37°55' E 023°01'0 0.0
2017-Dec-19 02:31N 37°55' E 023°01'0 0.0
2017-Dec-19 02:01N 37°55' E 023°01'0 0.1
2017-Dec-19 01:30N 37°55' E 023°01'0 0.0
2017-Dec-19 01:01N 37°55' E 023°01'0 0.1
2017-Dec-19 00:31N 37°55' E 023°01'0 0.0
2017-Dec-19 00:01N 37°55' E 023°01'0 0.0
2017-Dec-18 23:31N 37°55' E 023°01'0 0.0
2017-Dec-18 23:01N 37°55' E 023°01'0 0.1
2017-Dec-18 22:31N 37°55' E 023°01'0 0.0
2017-Dec-18 22:01N 37°55' E 023°01'0 0.0
2017-Dec-18 21:31N 37°55' E 023°01'0 0.0
2017-Dec-18 21:01N 37°55' E 023°01'0 0.0
2017-Dec-18 20:31N 37°55' E 023°01'0 0.0
2017-Dec-18 20:01N 37°55' E 023°01'0 0.0
2017-Dec-18 19:30N 37°55' E 023°01'0 0.0
2017-Dec-18 19:01N 37°55' E 023°01'0 0.1
2017-Dec-18 18:31N 37°55' E 023°01'0 0.0
2017-Dec-18 18:01N 37°55' E 023°01'0 0.1
2017-Dec-18 17:30N 37°55' E 023°01'0 0.0
2017-Dec-18 17:01N 37°55' E 023°01'0 0.0
2017-Dec-18 16:31N 37°55' E 023°01'0 0.0
2017-Dec-18 16:01N 37°55' E 023°01'0 0.0
2017-Dec-18 15:31N 37°55' E 023°01'0 0.1
2017-Dec-18 15:01N 37°55' E 023°01'0 0.0
2017-Dec-18 14:31N 37°55' E 023°01'0 0.0
2017-Dec-18 14:01N 37°55' E 023°01'0 0.0
2017-Dec-18 13:31N 37°55' E 023°01'0 0.1
2017-Dec-18 13:01N 37°55' E 023°01'0 0.0
2017-Dec-18 12:31N 37°55' E 023°01'0 0.0
2017-Dec-18 12:01N 37°55' E 023°01'0 0.0
2017-Dec-18 11:31N 37°55' E 023°01'0 0.1
2017-Dec-18 11:01N 37°55' E 023°01'1 1.1
2017-Dec-18 10:31N 37°55' E 023°01'0 0.1
2017-Dec-18 10:01N 37°55' E 023°01'0 0.0
2017-Dec-18 09:31N 37°55' E 023°01'0 0.0
2017-Dec-18 09:01N 37°55' E 023°01'0 0.0
2017-Dec-18 08:31N 37°55' E 023°01'0 0.0
2017-Dec-18 08:00N 37°55' E 023°01'0 0.0
2017-Dec-18 07:31N 37°55' E 023°01'0 0.0
2017-Dec-18 07:01N 37°55' E 023°01'0 0.0
2017-Dec-18 06:31N 37°55' E 023°01'0 0.0
2017-Dec-18 06:01N 37°55' E 023°01'0 0.0
2017-Dec-18 05:31N 37°55' E 023°01'0 0.0
2017-Dec-18 05:01N 37°55' E 023°01'0 0.0
2017-Dec-18 04:31N 37°55' E 023°01'0 0.0
2017-Dec-18 04:01N 37°55' E 023°01'0 0.0
2017-Dec-18 03:31N 37°55' E 023°01'0 0.0
2017-Dec-18 03:01N 37°55' E 023°01'0 0.0
2017-Dec-18 02:31N 37°55' E 023°01'0 0.0
2017-Dec-18 02:01N 37°55' E 023°01'0 0.0
2017-Dec-18 01:31N 37°55' E 023°01'0 0.0
2017-Dec-18 01:01N 37°55' E 023°01'0 0.0
2017-Dec-18 00:30N 37°55' E 023°01'0 0.2
2017-Dec-18 00:01N 37°55' E 023°01'3 6.8
2017-Dec-17 23:31N 37°54' E 023°06'4 7.8
2017-Dec-17 23:00N 37°53' E 023°10'4 7.6
2017-Dec-17 22:31N 37°52' E 023°15'4 7.7
2017-Dec-17 22:01N 37°51' E 023°20'4 7.6
2017-Dec-17 21:31N 37°51' E 023°25'4 7.6
2017-Dec-17 21:01N 37°50' E 023°29'4 7.6
2017-Dec-17 20:31N 37°49' E 023°34'4 7.3
2017-Dec-17 20:01N 37°49' E 023°39'3 6.7
2017-Dec-17 19:31N 37°46' E 023°42'4 7.2
2017-Dec-17 19:01N 37°43' E 023°44'  
Track history (hours):
 
Tides and Currents Weather Stations Pressure Air Temp Water Temp Dewpoint Dewpoint Depression Visibility Wind Speed Wind Dir Waves Ship Positions

Mastronikos

Last reported at 2017-Dec-27 18:38 UTC. Time now 2018-Jan-18 17:24 UTC.
Position N 38°22' E 023°45'.
Warning: this ship's position is 21 days out of date.

Length 81 m.

Type: Cargo ship. MMSI: 239943900.

Date/timePositionNaut miles runAvg speedWind from/ knotsBaromVisibWave heightAir tempDewpointWater temp
2017-Dec-27 18:38N 38°22' E 023°45'1 8.2
2017-Dec-27 18:28N 38°22' E 023°46'4 8.2
2017-Dec-27 18:01N 38°22' E 023°51'12 0.8
2017-Dec-27 04:00N 38°15' E 024°03'5 7.7
2017-Dec-27 03:21N 38°10' E 024°05'3 7.8
2017-Dec-27 03:01N 38°07' E 024°06'4 7.9
2017-Dec-27 02:30N 38°03' E 024°06'4 7.9
2017-Dec-27 02:01N 37°60' E 024°06'4 8.0
2017-Dec-27 01:30N 37°56' E 024°06'13 8.1
2017-Dec-26 23:51N 37°42' E 024°05'3 8.2
2017-Dec-26 23:30N 37°39' E 024°04'4 7.5
2017-Dec-26 23:01N 37°38' E 024°00'4 8.1
2017-Dec-26 22:31N 37°38' E 023°55'4 8.0
2017-Dec-26 22:01N 37°39' E 023°50'4 8.2
2017-Dec-26 21:30N 37°39' E 023°45'4 7.2
2017-Dec-26 21:01N 37°42' E 023°41'4 7.8
2017-Dec-26 20:31N 37°45' E 023°39'4 8.0
2017-Dec-26 20:01N 37°49' E 023°37'4 7.5
2017-Dec-26 19:31N 37°50' E 023°32'4 8.1
2017-Dec-26 19:01N 37°50' E 023°27'4 8.2
2017-Dec-26 18:31N 37°51' E 023°22'4 8.3
2017-Dec-26 18:01N 37°52' E 023°17'4 8.2
2017-Dec-26 17:31N 37°52' E 023°12'4 8.5
2017-Dec-26 17:01N 37°53' E 023°07'4 8.8
2017-Dec-26 16:31N 37°54' E 023°01'3 5.9
2017-Dec-26 15:56N 37°57' E 022°58'3 6.0
2017-Dec-26 15:31N 37°58' E 022°56'4 8.8
2017-Dec-26 15:01N 38°00' E 022°51'5 9.2
2017-Dec-26 14:31N 38°03' E 022°46'5 9.2
2017-Dec-26 14:01N 38°05' E 022°41'5 9.2
2017-Dec-26 13:30N 38°07' E 022°35'  
2017-Dec-22 18:35N 38°15' E 022°28'3 8.0
2017-Dec-22 18:12N 38°14' E 022°31'2 7.9
2017-Dec-22 17:59N 38°14' E 022°34'4 7.4
2017-Dec-22 17:30N 38°13' E 022°38'2 3.0
2017-Dec-22 16:59N 38°13' E 022°40'4 7.5
2017-Dec-22 16:31N 38°12' E 022°44'4 7.5
2017-Dec-22 16:01N 38°11' E 022°49'4 7.3
2017-Dec-22 15:28N 38°10' E 022°54'4 7.8
2017-Dec-22 15:00N 38°11' E 022°58'1 0.1
2017-Dec-22 05:47N 38°12' E 022°58'2 4.7
2017-Dec-22 05:27N 38°11' E 022°57'4 8.1
2017-Dec-22 04:55N 38°10' E 022°52'3 7.9
2017-Dec-22 04:30N 38°11' E 022°48'4 8.6
2017-Dec-22 04:00N 38°12' E 022°42'3 5.9
2017-Dec-22 03:31N 38°13' E 022°39'2 3.7
2017-Dec-22 02:59N 38°13' E 022°36'1 1.7
2017-Dec-22 02:30N 38°14' E 022°36'7 0.2
2017-Dec-20 18:15N 38°15' E 022°27'3 8.5
2017-Dec-20 17:51N 38°14' E 022°31'3 8.3
2017-Dec-20 17:28N 38°14' E 022°35'4 8.1
2017-Dec-20 17:00N 38°13' E 022°40'4 8.4
2017-Dec-20 16:30N 38°12' E 022°45'5 8.8
2017-Dec-20 15:55N 38°10' E 022°51'3 8.3
2017-Dec-20 15:30N 38°10' E 022°56'2 0.2
2017-Dec-20 05:42N 38°12' E 022°57'2 7.4
2017-Dec-20 05:30N 38°11' E 022°58'4 7.5
2017-Dec-20 05:00N 38°08' E 022°56'4 7.7
2017-Dec-20 04:30N 38°05' E 022°53'4 7.8
2017-Dec-20 04:00N 38°02' E 022°50'4 8.5
2017-Dec-20 03:30N 37°59' E 022°54'3 6.0
2017-Dec-20 03:01N 37°57' E 022°57'0 0.0
2017-Dec-20 02:31N 37°57' E 022°57'0 0.0
2017-Dec-20 02:01N 37°57' E 022°57'0 0.1
2017-Dec-20 01:31N 37°57' E 022°57'0 0.1
2017-Dec-20 01:01N 37°57' E 022°57'0 0.0
2017-Dec-20 00:31N 37°57' E 022°57'0 0.0
2017-Dec-20 00:00N 37°57' E 022°57'0 0.0
2017-Dec-19 23:31N 37°57' E 022°57'0 0.1
2017-Dec-19 23:01N 37°57' E 022°57'0 0.0
2017-Dec-19 22:31N 37°57' E 022°57'0 0.0
2017-Dec-19 22:00N 37°57' E 022°57'0 0.0
2017-Dec-19 21:31N 37°57' E 022°57'0 0.0
2017-Dec-19 21:00N 37°57' E 022°57'0 0.1
2017-Dec-19 20:31N 37°57' E 022°57'1 1.5
2017-Dec-19 20:01N 37°57' E 022°56'0 0.0
2017-Dec-19 19:31N 37°57' E 022°56'0 0.0
2017-Dec-19 19:00N 37°57' E 022°56'0 0.0
2017-Dec-19 18:31N 37°57' E 022°56'0 0.0
2017-Dec-19 18:01N 37°57' E 022°56'0 0.0
2017-Dec-19 17:31N 37°57' E 022°56'0 0.0
2017-Dec-19 17:00N 37°57' E 022°56'0 0.0
2017-Dec-19 16:31N 37°57' E 022°56'0 0.0
2017-Dec-19 16:01N 37°57' E 022°56'0 0.0
2017-Dec-19 15:30N 37°57' E 022°56'0 0.0
2017-Dec-19 15:01N 37°57' E 022°56'0 0.0
2017-Dec-19 14:31N 37°57' E 022°56'0 0.0
2017-Dec-19 14:00N 37°57' E 022°56'0 0.0
2017-Dec-19 13:31N 37°57' E 022°56'0 0.0
2017-Dec-19 13:01N 37°57' E 022°56'0 0.0
2017-Dec-19 12:31N 37°57' E 022°56'0 0.0
2017-Dec-19 12:01N 37°57' E 022°56'0 0.0
2017-Dec-19 11:30N 37°57' E 022°56'0 0.0
2017-Dec-19 11:01N 37°57' E 022°56'0 0.0
2017-Dec-19 10:31N 37°57' E 022°56'0 0.0
2017-Dec-19 10:01N 37°57' E 022°56'0 0.0
2017-Dec-19 09:31N 37°57' E 022°56'0 0.0
2017-Dec-19 09:01N 37°57' E 022°56'0 0.0
2017-Dec-19 08:31N 37°57' E 022°56'0 0.0
2017-Dec-19 08:01N 37°57' E 022°56'0 0.0
2017-Dec-19 07:30N 37°57' E 022°56'0 0.0
2017-Dec-19 07:01N 37°57' E 022°56'0 0.3
2017-Dec-19 06:31N 37°57' E 022°56'2 3.3
2017-Dec-19 06:01N 37°57' E 022°58'1 2.2
2017-Dec-19 05:30N 37°56' E 022°59'1 1.6
2017-Dec-19 05:00N 37°55' E 022°60'1 1.7
2017-Dec-19 04:30N 37°55' E 023°01'0 0.4
2017-Dec-19 04:01N 37°55' E 023°01'0 0.0
2017-Dec-19 03:31N 37°55' E 023°01'0 0.0
2017-Dec-19 03:01N 37°55' E 023°01'0 0.0
2017-Dec-19 02:31N 37°55' E 023°01'0 0.0
2017-Dec-19 02:01N 37°55' E 023°01'0 0.1
2017-Dec-19 01:30N 37°55' E 023°01'0 0.0
2017-Dec-19 01:01N 37°55' E 023°01'0 0.1
2017-Dec-19 00:31N 37°55' E 023°01'0 0.0
2017-Dec-19 00:01N 37°55' E 023°01'0 0.0
2017-Dec-18 23:31N 37°55' E 023°01'0 0.0
2017-Dec-18 23:01N 37°55' E 023°01'0 0.1
2017-Dec-18 22:31N 37°55' E 023°01'0 0.0
2017-Dec-18 22:01N 37°55' E 023°01'0 0.0
2017-Dec-18 21:31N 37°55' E 023°01'0 0.0
2017-Dec-18 21:01N 37°55' E 023°01'0 0.0
2017-Dec-18 20:31N 37°55' E 023°01'0 0.0
2017-Dec-18 20:01N 37°55' E 023°01'0 0.0
2017-Dec-18 19:30N 37°55' E 023°01'0 0.0
2017-Dec-18 19:01N 37°55' E 023°01'0 0.1
2017-Dec-18 18:31N 37°55' E 023°01'0 0.0
2017-Dec-18 18:01N 37°55' E 023°01'0 0.1
2017-Dec-18 17:30N 37°55' E 023°01'0 0.0
2017-Dec-18 17:01N 37°55' E 023°01'0 0.0
2017-Dec-18 16:31N 37°55' E 023°01'0 0.0
2017-Dec-18 16:01N 37°55' E 023°01'0 0.0
2017-Dec-18 15:31N 37°55' E 023°01'0 0.1
2017-Dec-18 15:01N 37°55' E 023°01'0 0.0
2017-Dec-18 14:31N 37°55' E 023°01'0 0.0
2017-Dec-18 14:01N 37°55' E 023°01'0 0.0
2017-Dec-18 13:31N 37°55' E 023°01'0 0.1
2017-Dec-18 13:01N 37°55' E 023°01'0 0.0
2017-Dec-18 12:31N 37°55' E 023°01'0 0.0
2017-Dec-18 12:01N 37°55' E 023°01'0 0.0
2017-Dec-18 11:31N 37°55' E 023°01'0 0.1
2017-Dec-18 11:01N 37°55' E 023°01'1 1.1
2017-Dec-18 10:31N 37°55' E 023°01'0 0.1
2017-Dec-18 10:01N 37°55' E 023°01'0 0.0
2017-Dec-18 09:31N 37°55' E 023°01'0 0.0
2017-Dec-18 09:01N 37°55' E 023°01'0 0.0
2017-Dec-18 08:31N 37°55' E 023°01'0 0.0
2017-Dec-18 08:00N 37°55' E 023°01'0 0.0
2017-Dec-18 07:31N 37°55' E 023°01'0 0.0
2017-Dec-18 07:01N 37°55' E 023°01'0 0.0
2017-Dec-18 06:31N 37°55' E 023°01'0 0.0
2017-Dec-18 06:01N 37°55' E 023°01'0 0.0
2017-Dec-18 05:31N 37°55' E 023°01'0 0.0
2017-Dec-18 05:01N 37°55' E 023°01'0 0.0
2017-Dec-18 04:31N 37°55' E 023°01'0 0.0
2017-Dec-18 04:01N 37°55' E 023°01'0 0.0
2017-Dec-18 03:31N 37°55' E 023°01'0 0.0
2017-Dec-18 03:01N 37°55' E 023°01'0 0.0
2017-Dec-18 02:31N 37°55' E 023°01'0 0.0
2017-Dec-18 02:01N 37°55' E 023°01'0 0.0
2017-Dec-18 01:31N 37°55' E 023°01'0 0.0
2017-Dec-18 01:01N 37°55' E 023°01'0 0.0
2017-Dec-18 00:30N 37°55' E 023°01'0 0.2
2017-Dec-18 00:01N 37°55' E 023°01'3 6.8
2017-Dec-17 23:31N 37°54' E 023°06'4 7.8
2017-Dec-17 23:00N 37°53' E 023°10'4 7.6
2017-Dec-17 22:31N 37°52' E 023°15'4 7.7
2017-Dec-17 22:01N 37°51' E 023°20'4 7.6
2017-Dec-17 21:31N 37°51' E 023°25'4 7.6
2017-Dec-17 21:01N 37°50' E 023°29'4 7.6
2017-Dec-17 20:31N 37°49' E 023°34'4 7.3
2017-Dec-17 20:01N 37°49' E 023°39'3 6.7
2017-Dec-17 19:31N 37°46' E 023°42'4 7.2
2017-Dec-17 19:01N 37°43' E 023°44'  

Dump ship's entire track history